Terminal Aerodrome Forecast
Issued by NWS

Home | Current Version | Previous Version | Text Only | Print | Product List | Glossary On
Versions: 1 2 3 4 5 6 7 8 9 10 11 12 13 14 15 16 17 18
483
FTUS46 KSEW 222337
TAFPAE
TAF
KPAE 222337Z 2300/2324 31005KT P6SM SCT030 SCT045
     FM230600 05004KT P6SM SCT020 SCT040
     FM231100 14004KT 6SM BR VCSH SCT005 BKN009
     FM231800 22004KT P6SM SCT012 BKN018
     FM232100 25004KT P6SM SKC=

USA.gov is the U.S. government's official web portal to all federal, state and local government web resources and services.